createdAt,value
2019-02-15T00:00:45.049Z,10.20
2019-02-15T00:03:13.735Z,8.05
2019-02-15T00:05:42.508Z,7.23
2019-02-15T00:08:11.261Z,8.23
2019-02-15T00:10:40.095Z,8.80
2019-02-15T00:13:13.630Z,7.87
2019-02-15T00:15:39.063Z,8.40
2019-02-15T00:18:21.314Z,8.47
2019-02-15T00:20:51.688Z,9.00
2019-02-15T00:23:20.436Z,9.90
2019-02-15T00:25:49.181Z,9.77
2019-02-15T00:28:17.976Z,8.87
2019-02-15T00:30:46.820Z,9.80
2019-02-15T00:33:15.438Z,9.60
2019-02-15T00:35:44.157Z,9.73
2019-02-15T00:38:12.996Z,9.70
2019-02-15T00:40:41.746Z,9.73
2019-02-15T00:43:10.431Z,9.50
2019-02-15T00:45:40.749Z,8.10
2019-02-15T00:48:13.932Z,8.20
2019-02-15T00:50:44.377Z,11.33
2019-02-15T00:53:26.671Z,10.30
2019-02-15T00:56:02.923Z,9.20
2019-02-15T00:58:49.650Z,8.90
2019-02-15T01:01:26.487Z,8.98
2019-02-15T01:03:56.766Z,8.10
2019-02-15T01:06:43.062Z,8.03
2019-02-15T01:09:17.998Z,9.87
2019-02-15T01:11:48.305Z,8.27
2019-02-15T01:14:17.161Z,9.88
2019-02-15T01:16:45.904Z,11.70
2019-02-15T01:19:14.525Z,9.83
2019-02-15T01:21:43.220Z,11.40
2019-02-15T01:24:11.897Z,10.90
2019-02-15T01:26:42.284Z,9.97
2019-02-15T01:29:12.726Z,8.10
2019-02-15T01:34:31.131Z,8.90
2019-02-15T01:37:16.415Z,9.33
2019-02-15T01:39:46.696Z,10.00
2019-02-15T01:42:22.952Z,10.30
2019-02-15T01:44:53.289Z,10.40
2019-02-15T01:47:23.133Z,9.00
2019-02-15T01:49:52.659Z,9.00
2019-02-15T01:52:21.444Z,9.08
2019-02-15T01:54:50.007Z,9.57
2019-02-15T01:57:18.906Z,10.78
2019-02-15T01:59:47.576Z,10.33
2019-02-15T02:02:16.416Z,9.47
2019-02-15T02:04:45.467Z,9.40
2019-02-15T02:07:14.198Z,9.70
2019-02-15T02:09:42.850Z,8.88
2019-02-15T02:12:11.638Z,8.88
2019-02-15T02:14:40.354Z,8.97
2019-02-15T02:17:09.093Z,9.87
2019-02-15T02:19:37.925Z,8.50
2019-02-15T02:22:06.646Z,8.63
2019-02-15T02:24:35.621Z,9.40
2019-02-15T02:27:04.973Z,9.43
2019-02-15T02:29:33.600Z,8.27
2019-02-15T02:32:02.336Z,9.40
2019-02-15T02:34:31.017Z,9.93
2019-02-15T02:36:59.595Z,9.33
2019-02-15T02:39:28.359Z,9.20
2019-02-15T02:41:57.013Z,8.70
2019-02-15T02:44:25.755Z,8.90
2019-02-15T02:46:54.616Z,9.20
2019-02-15T02:49:23.279Z,8.63
2019-02-15T02:51:51.986Z,8.80
2019-02-15T02:54:20.765Z,9.35
2019-02-15T02:56:49.464Z,10.03
2019-02-15T02:59:18.305Z,8.97
2019-02-15T03:01:47.072Z,10.08
2019-02-15T03:04:15.820Z,9.77
2019-02-15T03:06:44.564Z,10.23
2019-02-15T03:09:13.216Z,10.57
2019-02-15T03:11:41.914Z,10.80
2019-02-15T03:14:11.779Z,11.22
2019-02-15T03:16:40.985Z,10.50
2019-02-15T03:19:09.734Z,11.87
2019-02-15T03:21:38.421Z,10.10
2019-02-15T03:24:07.066Z,10.45
2019-02-15T03:26:35.771Z,9.70
2019-02-15T03:29:05.009Z,10.18
2019-02-15T03:31:33.817Z,8.70
2019-02-15T03:34:02.540Z,9.47
2019-02-15T03:36:32.807Z,9.53
2019-02-15T03:39:03.178Z,8.57
2019-02-15T03:41:33.471Z,10.47
2019-02-15T03:44:02.252Z,8.73
2019-02-15T03:46:31.065Z,9.77
2019-02-15T03:48:59.667Z,11.27
2019-02-15T03:51:28.429Z,9.23
2019-02-15T03:53:57.116Z,10.40
2019-02-15T03:56:25.790Z,10.87
2019-02-15T03:58:54.536Z,10.60
2019-02-15T04:01:23.387Z,10.63
2019-02-15T04:03:52.211Z,10.40
2019-02-15T04:06:20.949Z,9.50
2019-02-15T04:08:49.721Z,10.60
2019-02-15T04:11:18.537Z,10.63
2019-02-15T04:13:47.174Z,9.80
2019-02-15T04:16:15.822Z,8.77
2019-02-15T04:18:44.539Z,11.10
2019-02-15T04:21:13.225Z,9.90
2019-02-15T04:23:42.564Z,8.70
2019-02-15T04:26:11.265Z,9.83
2019-02-15T04:28:40.021Z,8.47
2019-02-15T04:31:08.816Z,8.80
2019-02-15T04:33:37.756Z,10.47
2019-02-15T04:36:06.565Z,8.40
2019-02-15T04:38:35.260Z,9.37
2019-02-15T04:41:05.030Z,10.33
2019-02-15T04:43:33.614Z,10.00
2019-02-15T04:46:02.387Z,10.20
2019-02-15T04:48:31.172Z,9.07
2019-02-15T04:50:59.948Z,10.75
2019-02-15T04:53:28.675Z,8.77
2019-02-15T04:55:57.469Z,9.07
2019-02-15T04:58:26.389Z,9.90
2019-02-15T05:00:55.159Z,9.27
2019-02-15T05:03:23.988Z,8.97
2019-02-15T05:05:52.779Z,9.07
2019-02-15T05:08:21.634Z,9.80
2019-02-15T05:10:50.377Z,9.33
2019-02-15T05:13:19.287Z,9.88
2019-02-15T05:15:47.963Z,13.90
2019-02-15T05:18:16.688Z,17.60
2019-02-15T05:20:51.904Z,13.67
2019-02-15T05:23:20.468Z,11.80
2019-02-15T05:25:49.269Z,13.63
2019-02-15T05:28:18.086Z,10.40
2019-02-15T05:30:46.721Z,9.90
2019-02-15T05:33:15.649Z,11.80
2019-02-15T05:35:44.290Z,9.10
2019-02-15T05:38:12.928Z,8.87
2019-02-15T05:40:41.713Z,7.70
2019-02-15T05:43:10.527Z,7.35
2019-02-15T05:45:39.186Z,13.13
2019-02-15T05:48:07.935Z,10.03
2019-02-15T05:50:36.673Z,11.78
2019-02-15T05:53:05.345Z,12.00
2019-02-15T05:55:33.959Z,11.97
2019-02-15T05:58:02.528Z,13.50
2019-02-15T06:00:43.622Z,13.88
2019-02-15T06:03:13.791Z,10.33
2019-02-15T06:05:42.785Z,9.47
2019-02-15T06:08:11.532Z,9.50
2019-02-15T06:10:40.342Z,8.93
2019-02-15T06:13:08.921Z,6.85
2019-02-15T06:15:37.449Z,7.83
2019-02-15T06:18:06.187Z,11.10
2019-02-15T06:20:34.840Z,8.68
2019-02-15T06:23:03.662Z,11.33
2019-02-15T06:25:32.331Z,10.47
2019-02-15T06:28:01.011Z,8.50
2019-02-15T06:30:29.634Z,11.90
2019-02-15T06:32:58.321Z,10.05
2019-02-15T06:35:26.997Z,11.65
2019-02-15T06:37:55.769Z,9.13
2019-02-15T06:40:24.666Z,11.27
2019-02-15T06:42:53.328Z,9.57
2019-02-15T06:45:25.080Z,9.03
2019-02-15T06:47:52.457Z,9.40
2019-02-15T06:50:21.194Z,8.80
2019-02-15T06:52:49.972Z,7.80
2019-02-15T06:55:18.663Z,7.30
2019-02-15T06:57:47.431Z,7.77
2019-02-15T07:00:34.174Z,6.95
2019-02-15T07:03:07.251Z,7.20
2019-02-15T07:05:35.894Z,7.57
2019-02-15T07:08:05.027Z,8.50
2019-02-15T07:10:33.771Z,7.00
2019-02-15T07:13:02.478Z,7.20
2019-02-15T07:15:33.856Z,8.23
2019-02-15T07:18:01.735Z,6.60
2019-02-15T07:20:30.434Z,9.17
2019-02-15T07:22:59.209Z,8.63
2019-02-15T07:25:27.981Z,10.43
2019-02-15T07:27:56.573Z,10.37
2019-02-15T07:30:25.476Z,10.10
2019-02-15T07:32:54.169Z,6.20
2019-02-15T07:35:22.791Z,6.10
2019-02-15T07:37:51.393Z,5.73
2019-02-15T07:40:20.097Z,5.33
2019-02-15T07:42:48.794Z,5.63
2019-02-15T07:45:17.973Z,5.67
2019-02-15T07:47:46.907Z,4.90
2019-02-15T07:50:15.657Z,4.95
2019-02-15T07:52:44.278Z,5.73
2019-02-15T07:55:12.832Z,4.90
2019-02-15T07:57:41.453Z,4.60
2019-02-15T08:00:13.674Z,4.92
2019-02-15T08:02:42.332Z,5.47
2019-02-15T08:05:12.329Z,5.05
2019-02-15T08:07:40.962Z,5.60
2019-02-15T08:10:12.553Z,5.70
2019-02-15T08:12:41.259Z,5.67
2019-02-15T08:15:11.320Z,6.50
2019-02-15T08:17:39.981Z,5.93
2019-02-15T08:20:14.817Z,5.47
2019-02-15T08:22:43.603Z,5.40
2019-02-15T08:25:12.284Z,6.17
2019-02-15T08:27:40.910Z,5.60
2019-02-15T08:30:12.706Z,5.47
2019-02-15T08:32:41.433Z,5.30
2019-02-15T08:35:11.693Z,5.45
2019-02-15T08:37:57.158Z,5.27
2019-02-15T08:40:28.021Z,5.17
2019-02-15T08:43:08.514Z,5.30
2019-02-15T08:45:42.529Z,5.08
2019-02-15T08:48:15.810Z,5.50
2019-02-15T08:51:00.287Z,5.70
2019-02-15T08:53:47.746Z,5.37
2019-02-15T08:56:31.342Z,5.40
2019-02-15T08:59:15.576Z,5.43
2019-02-15T09:01:57.908Z,5.13
2019-02-15T09:04:42.086Z,5.50
2019-02-15T09:07:18.940Z,5.22
2019-02-15T09:10:01.180Z,5.77
2019-02-15T09:12:45.988Z,5.50
2019-02-15T09:15:18.413Z,6.13
2019-02-15T09:17:48.089Z,6.37
2019-02-15T09:20:16.959Z,6.45
2019-02-15T09:22:45.657Z,5.90
2019-02-15T09:25:14.379Z,5.65
2019-02-15T09:27:50.745Z,5.53
2019-02-15T09:30:19.621Z,5.67
2019-02-15T09:32:48.446Z,5.40
2019-02-15T09:35:17.275Z,5.80
2019-02-15T09:37:46.055Z,6.40
2019-02-15T09:40:14.940Z,5.83
2019-02-15T09:42:43.644Z,5.87
2019-02-15T09:45:13.092Z,4.90
2019-02-15T09:47:41.903Z,4.80
2019-02-15T09:50:12.239Z,5.10
2019-02-15T09:52:41.641Z,4.83
2019-02-15T09:55:10.458Z,4.87
2019-02-15T09:57:39.106Z,4.40
2019-02-15T10:00:10.318Z,4.73
2019-02-15T10:02:39.168Z,4.87
2019-02-15T10:05:09.407Z,4.47
2019-02-15T10:07:38.074Z,4.70
2019-02-15T10:10:11.114Z,4.50
2019-02-15T10:12:39.821Z,5.70
2019-02-15T10:15:11.512Z,4.90
2019-02-15T10:17:40.319Z,5.27
2019-02-15T10:20:10.397Z,4.73
2019-02-15T10:22:39.174Z,4.40
2019-02-15T10:25:09.621Z,5.00
2019-02-15T10:27:38.617Z,3.83
2019-02-15T10:30:10.242Z,4.43
2019-02-15T10:32:39.018Z,4.67
2019-02-15T10:35:11.872Z,3.93
2019-02-15T10:37:40.923Z,4.67
2019-02-15T10:40:11.657Z,3.80
2019-02-15T10:42:40.521Z,4.83
2019-02-15T10:45:15.581Z,4.10
2019-02-15T10:47:44.396Z,4.37
2019-02-15T10:50:13.465Z,3.40
2019-02-15T10:52:42.407Z,4.20
2019-02-15T10:55:11.133Z,4.13
2019-02-15T10:57:39.831Z,4.40
2019-02-15T11:00:21.852Z,4.20
2019-02-15T11:02:50.660Z,3.87
2019-02-15T11:05:20.957Z,3.77
2019-02-15T11:07:49.644Z,4.10
2019-02-15T11:10:18.240Z,3.45
2019-02-15T11:12:46.978Z,4.10
2019-02-15T11:15:17.816Z,4.00
2019-02-15T11:17:46.558Z,3.50
2019-02-15T11:20:18.084Z,3.90
2019-02-15T11:22:46.793Z,3.93
2019-02-15T11:25:15.586Z,3.27
2019-02-15T11:27:44.333Z,3.67
2019-02-15T11:30:16.214Z,3.30
2019-02-15T11:32:44.825Z,3.47
2019-02-15T11:35:14.778Z,3.42
2019-02-15T11:37:43.507Z,3.70
2019-02-15T11:40:14.982Z,3.13
2019-02-15T11:42:43.968Z,4.33
2019-02-15T11:45:15.068Z,3.30
2019-02-15T11:47:43.797Z,4.13
2019-02-15T11:50:15.177Z,3.55
2019-02-15T11:52:43.922Z,4.23
2019-02-15T11:55:12.719Z,3.53
2019-02-15T11:57:41.417Z,3.40
2019-02-15T12:00:18.470Z,3.70
2019-02-15T12:02:47.214Z,3.67
2019-02-15T12:05:15.964Z,4.13
2019-02-15T12:07:44.670Z,4.07
2019-02-15T12:10:14.056Z,4.00
2019-02-15T12:12:44.401Z,3.53
2019-02-15T12:15:13.021Z,3.20
2019-02-15T12:17:41.759Z,3.57
2019-02-15T12:20:16.493Z,3.27
2019-02-15T12:22:45.232Z,2.73
2019-02-15T12:25:13.866Z,2.70
2019-02-15T12:27:42.544Z,2.80
2019-02-15T12:30:13.304Z,3.12
2019-02-15T12:32:42.034Z,2.77
2019-02-15T12:35:15.520Z,3.30
2019-02-15T12:37:44.215Z,2.87
2019-02-15T12:40:14.164Z,2.70
2019-02-15T12:42:42.927Z,2.63
2019-02-15T12:45:14.726Z,2.90
2019-02-15T12:47:43.348Z,3.23
2019-02-15T12:50:15.002Z,2.97
2019-02-15T12:52:43.716Z,2.33
2019-02-15T12:55:12.511Z,3.03
2019-02-15T12:57:41.278Z,3.10
2019-02-15T13:00:15.496Z,2.83
2019-02-15T13:02:44.323Z,2.37
2019-02-15T13:05:14.562Z,2.20
2019-02-15T13:07:43.275Z,2.57
2019-02-15T13:10:16.617Z,2.55
2019-02-15T13:12:45.452Z,2.40
2019-02-15T13:15:14.243Z,2.13
2019-02-15T13:17:42.912Z,2.77
2019-02-15T13:20:12.575Z,2.70
2019-02-15T13:22:41.267Z,2.90
2019-02-15T13:25:09.983Z,2.40
2019-02-15T13:27:38.661Z,3.10
2019-02-15T13:30:10.240Z,2.53
2019-02-15T13:32:39.073Z,3.07
2019-02-15T13:35:11.037Z,2.57
2019-02-15T13:37:39.717Z,3.17
2019-02-15T13:40:09.989Z,2.37
2019-02-15T13:42:38.751Z,2.53
2019-02-15T13:45:10.023Z,2.47
2019-02-15T13:47:38.723Z,2.40
2019-02-15T13:50:13.222Z,2.50
2019-02-15T13:52:41.878Z,2.90
2019-02-15T13:55:11.855Z,2.40
2019-02-15T13:57:40.579Z,2.50
2019-02-15T14:00:14.034Z,2.30
2019-02-15T14:02:42.672Z,2.53
2019-02-15T14:05:13.191Z,2.40
2019-02-15T14:07:41.966Z,2.50
2019-02-15T14:10:13.068Z,2.50
2019-02-15T14:12:47.539Z,2.50
2019-02-15T14:15:16.280Z,3.10
2019-02-15T14:17:48.229Z,2.60
2019-02-15T14:20:15.237Z,3.00
2019-02-15T14:22:43.970Z,2.20
2019-02-15T14:25:14.034Z,2.58
2019-02-15T14:27:42.720Z,2.73
2019-02-15T14:30:14.285Z,2.70
2019-02-15T14:32:42.955Z,2.85
2019-02-15T14:35:14.388Z,2.77
2019-02-15T14:37:43.011Z,2.20
2019-02-15T14:40:14.356Z,2.23
2019-02-15T14:42:43.127Z,2.70
2019-02-15T14:45:15.168Z,3.03
2019-02-15T14:47:43.860Z,2.90
2019-02-15T14:50:12.601Z,3.10
2019-02-15T14:52:41.451Z,2.93
2019-02-15T14:55:11.444Z,3.30
2019-02-15T14:57:41.198Z,2.70
2019-02-15T15:00:12.712Z,2.87
2019-02-15T15:02:41.435Z,3.10
2019-02-15T15:05:12.852Z,3.37
2019-02-15T15:07:41.639Z,3.20
2019-02-15T15:10:11.821Z,2.83
2019-02-15T15:12:40.598Z,2.83
2019-02-15T15:15:12.237Z,2.77
2019-02-15T15:17:40.983Z,3.10
2019-02-15T15:20:13.707Z,2.67
2019-02-15T15:22:42.474Z,3.00
2019-02-15T15:25:13.925Z,3.00
2019-02-15T15:27:42.568Z,2.80
2019-02-15T15:30:15.984Z,2.90
2019-02-15T15:32:44.645Z,2.90
2019-02-15T15:35:13.480Z,2.97
2019-02-15T15:37:42.259Z,2.73
2019-02-15T15:40:16.211Z,3.67
2019-02-15T15:42:44.937Z,2.30
2019-02-15T15:45:13.775Z,2.70
2019-02-15T15:47:42.444Z,3.10
2019-02-15T15:50:12.994Z,2.80
2019-02-15T15:52:41.786Z,2.80
2019-02-15T15:55:12.156Z,2.67
2019-02-15T15:57:40.899Z,2.70
2019-02-15T16:00:12.455Z,3.10
2019-02-15T16:02:41.207Z,2.67
2019-02-15T16:05:14.837Z,2.75
2019-02-15T16:07:44.647Z,2.90
2019-02-15T16:10:17.097Z,3.10
2019-02-15T16:12:45.792Z,2.70
2019-02-15T16:15:15.157Z,2.65
2019-02-15T16:17:44.030Z,3.23
2019-02-15T16:20:14.249Z,2.70
2019-02-15T16:22:43.967Z,3.40
2019-02-15T16:25:12.807Z,2.60
2019-02-15T16:27:43.528Z,3.17
2019-02-15T16:30:14.432Z,2.62
2019-02-15T16:32:43.209Z,2.97
2019-02-15T16:35:11.898Z,2.83
2019-02-15T16:37:40.661Z,3.03
2019-02-15T16:40:12.274Z,2.60
2019-02-15T16:42:41.088Z,3.05
2019-02-15T16:45:12.444Z,3.60
2019-02-15T16:47:41.186Z,3.20
2019-02-15T16:50:09.975Z,3.22
2019-02-15T16:52:38.734Z,3.30
2019-02-15T16:55:12.699Z,4.00
2019-02-15T16:57:39.891Z,3.97
2019-02-15T17:00:11.838Z,3.17
2019-02-15T17:02:40.574Z,3.40
2019-02-15T17:05:09.362Z,4.63
2019-02-15T17:07:38.022Z,4.08
2019-02-15T17:10:09.113Z,2.80
2019-02-15T17:12:37.923Z,3.13
2019-02-15T17:15:11.928Z,3.73
2019-02-15T17:17:40.572Z,3.60
2019-02-15T17:20:12.039Z,3.43
2019-02-15T17:22:40.656Z,3.40
2019-02-15T17:25:13.558Z,3.35
2019-02-15T17:27:42.260Z,4.40
2019-02-15T17:30:12.442Z,4.08
2019-02-15T17:32:41.440Z,4.25
2019-02-15T17:35:12.068Z,3.52
2019-02-15T17:37:40.803Z,3.90
2019-02-15T17:40:12.119Z,4.37
2019-02-15T17:42:40.892Z,4.07
2019-02-15T17:45:12.104Z,4.20
2019-02-15T17:47:40.854Z,4.30
2019-02-15T17:50:12.142Z,4.20
2019-02-15T17:52:41.432Z,3.50
2019-02-15T17:55:11.910Z,4.33
2019-02-15T17:57:52.391Z,4.00
2019-02-15T18:00:23.078Z,4.73
2019-02-15T18:02:51.708Z,3.72
2019-02-15T18:05:20.346Z,3.70
2019-02-15T18:07:50.195Z,3.60
2019-02-15T18:10:18.881Z,4.40
2019-02-15T18:12:47.496Z,4.40
2019-02-15T18:15:16.145Z,4.73
2019-02-15T18:17:44.903Z,4.03
2019-02-15T18:20:13.741Z,3.80
2019-02-15T18:22:42.464Z,4.15
2019-02-15T18:25:11.094Z,4.63
2019-02-15T18:27:39.807Z,5.10
2019-02-15T18:30:14.454Z,5.40
2019-02-15T18:32:43.226Z,5.40
2019-02-15T18:35:12.912Z,5.50
2019-02-15T18:37:41.494Z,5.60
2019-02-15T18:40:14.414Z,5.90
2019-02-15T18:42:43.030Z,4.30
2019-02-15T18:45:14.540Z,4.87
2019-02-15T18:47:43.271Z,5.07
2019-02-15T18:50:12.022Z,4.35
2019-02-15T18:52:41.513Z,5.30
2019-02-15T18:55:11.567Z,4.05
2019-02-15T18:57:41.833Z,4.47
2019-02-15T19:00:15.594Z,4.60
2019-02-15T19:02:47.184Z,4.80
2019-02-15T19:05:16.404Z,4.60
2019-02-15T19:07:45.738Z,4.70
2019-02-15T19:10:23.147Z,3.90
2019-02-15T19:12:52.193Z,4.20
2019-02-15T19:15:20.972Z,4.37
2019-02-15T19:17:49.702Z,4.60
2019-02-15T19:20:18.635Z,4.37
2019-02-15T19:22:57.837Z,4.70
2019-02-15T19:25:27.427Z,4.10
2019-02-15T19:27:56.133Z,4.37
2019-02-15T19:30:30.783Z,4.77
2019-02-15T19:33:00.650Z,4.67
2019-02-15T19:35:29.627Z,4.30
2019-02-15T19:37:58.614Z,5.70
2019-02-15T19:40:27.453Z,4.37
2019-02-15T19:43:02.112Z,6.50
2019-02-15T19:45:30.835Z,5.77
2019-02-15T19:48:00.407Z,6.70
2019-02-15T19:50:29.328Z,5.60
2019-02-15T19:52:57.968Z,5.70
2019-02-15T19:55:26.781Z,6.33
2019-02-15T19:57:55.324Z,6.30
2019-02-15T20:00:24.115Z,6.67
2019-02-15T20:02:54.153Z,7.70
2019-02-15T20:05:23.867Z,7.13
2019-02-15T20:07:52.979Z,6.67
2019-02-15T20:10:24.831Z,5.58
2019-02-15T20:12:54.093Z,6.97
2019-02-15T20:15:22.892Z,7.00
2019-02-15T20:17:52.307Z,7.70
2019-02-15T20:20:22.032Z,6.43
2019-02-15T20:22:52.743Z,7.40
2019-02-15T20:25:23.320Z,9.55
2019-02-15T20:27:52.823Z,7.45
2019-02-15T20:30:31.551Z,7.80
2019-02-15T20:33:01.356Z,6.70
2019-02-15T20:35:30.045Z,7.00
2019-02-15T20:37:59.855Z,8.10
2019-02-15T20:40:31.092Z,7.77
2019-02-15T20:43:00.007Z,7.77
2019-02-15T20:45:30.571Z,6.60
2019-02-15T20:48:12.034Z,7.20
2019-02-15T20:50:38.352Z,7.10
2019-02-15T20:53:07.448Z,7.95
2019-02-15T20:55:36.246Z,8.47
2019-02-15T20:58:05.045Z,8.77
2019-02-15T21:00:33.930Z,9.10
2019-02-15T21:03:02.776Z,8.47
2019-02-15T21:05:31.636Z,8.30
2019-02-15T21:08:00.751Z,10.43
2019-02-15T21:10:29.826Z,8.97
2019-02-15T21:12:58.840Z,11.55
2019-02-15T21:15:27.661Z,8.97
2019-02-15T21:17:56.362Z,11.37
2019-02-15T21:20:25.261Z,10.40
2019-02-15T21:22:54.137Z,8.73
2019-02-15T21:25:22.884Z,13.08
2019-02-15T21:27:51.552Z,11.77
2019-02-15T21:30:20.809Z,13.50
2019-02-15T21:32:49.551Z,13.77
2019-02-15T21:35:18.190Z,12.13
2019-02-15T21:37:47.471Z,10.23
2019-02-15T21:40:17.916Z,11.43
2019-02-15T21:42:47.346Z,14.23
2019-02-15T21:45:16.952Z,10.55
2019-02-15T21:47:46.478Z,9.43
2019-02-15T21:50:17.600Z,11.40
2019-02-15T21:52:46.653Z,10.70
2019-02-15T21:55:19.789Z,15.00
2019-02-15T21:57:48.409Z,12.07
2019-02-15T22:00:20.260Z,10.50
2019-02-15T22:02:49.007Z,10.35
2019-02-15T22:05:17.975Z,12.80
2019-02-15T22:07:46.674Z,10.70
2019-02-15T22:10:15.456Z,13.22
2019-02-15T22:12:44.206Z,11.00
2019-02-15T22:15:16.131Z,10.38
2019-02-15T22:17:44.884Z,11.57
2019-02-15T22:20:26.372Z,12.40
2019-02-15T22:22:48.350Z,11.50
2019-02-15T22:25:17.042Z,11.23
2019-02-15T22:27:45.682Z,10.82
2019-02-15T22:30:17.189Z,15.05
2019-02-15T22:32:45.862Z,14.80
2019-02-15T22:35:14.516Z,18.52
2019-02-15T22:37:43.181Z,12.33
2019-02-15T22:40:29.768Z,13.00
2019-02-15T22:43:04.558Z,16.42
2019-02-15T22:45:33.343Z,15.23
2019-02-15T22:48:02.121Z,12.70
2019-02-15T22:50:36.096Z,11.90
2019-02-15T22:53:01.425Z,11.17
2019-02-15T22:55:30.568Z,12.00
2019-02-15T22:57:59.362Z,12.20
2019-02-15T23:00:50.458Z,14.70
2019-02-15T23:03:24.847Z,19.50
2019-02-15T23:05:53.467Z,17.57
2019-02-15T23:08:22.291Z,15.07
2019-02-15T23:10:51.148Z,11.83
2019-02-15T23:13:19.932Z,11.20
2019-02-15T23:15:48.794Z,11.67
2019-02-15T23:18:19.021Z,10.13
2019-02-15T23:20:48.189Z,9.47
2019-02-15T23:23:17.072Z,10.83
2019-02-15T23:25:45.820Z,10.25
2019-02-15T23:28:14.469Z,11.43
2019-02-15T23:30:43.223Z,11.10
2019-02-15T23:33:11.932Z,11.75
2019-02-15T23:35:40.632Z,10.70
2019-02-15T23:38:09.429Z,13.23
2019-02-15T23:40:38.116Z,14.27
2019-02-15T23:43:06.885Z,14.33
2019-02-15T23:45:35.780Z,13.80
2019-02-15T23:48:04.986Z,13.95
2019-02-15T23:50:33.812Z,12.03
2019-02-15T23:53:02.588Z,12.57
2019-02-15T23:55:31.461Z,13.47
2019-02-15T23:58:00.150Z,14.63
